Time;durP1;ratioP1;P1;durP2;ratioP2;P2;SDS_P1;SDS_P2;PMS_P1;PMS_P2;Temp;Humidity;BMP_temperature;BMP_pressure;BME280_temperature;BME280_humidity;BME280_pressure;Samples;Min_cycle;Max_cycle;Signal;HPM_P1;HPM_P2
2022/06/18 00:03:11;;;;;;;;;;;22.80;99.90;;;;;;8415836;28;19931;-72
2022/06/18 00:07:18;;;;;;;;;;;22.70;99.90;;;;;;8385530;28;20031;-71
2022/06/18 00:15:41;;;;;;;;;;;22.60;99.90;;;;;;8386392;28;19921;-71
2022/06/18 00:19:43;;;;;;;;;;;22.60;99.90;;;;;;8410780;28;19920;-71
2022/06/18 00:23:45;;;;;;;;;;;22.60;99.90;;;;;;8380702;28;19971;-71
2022/06/18 00:27:47;;;;;;;;;;;22.50;99.90;;;;;;8378783;28;19920;-71
2022/06/18 00:31:49;;;;;;;;;;;22.50;99.90;;;;;;8390266;28;20320;-71
2022/06/18 00:35:52;;;;;;;;;;;22.50;99.90;;;;;;8385172;28;25127;-71
2022/06/18 00:39:53;;;;;;;;;;;22.40;99.90;;;;;;8380956;28;19925;-71
2022/06/18 00:44:01;;;;;;;;;;;22.40;99.90;;;;;;8416119;28;19928;-71
2022/06/18 00:48:09;;;;;;;;;;;22.30;99.90;;;;;;8384854;28;20380;-72
2022/06/18 00:52:15;;;;;;;;;;;22.30;99.90;;;;;;8386140;28;19920;-71
2022/06/18 00:56:21;;;;;;;;;;;22.20;99.90;;;;;;8380430;28;19924;-71
2022/06/18 01:00:38;;;;;;;;;;;22.20;99.90;;;;;;8393072;28;20416;-71
2022/06/18 01:04:40;;;;;;;;;;;22.20;99.90;;;;;;8406632;28;19925;-71
2022/06/18 01:08:42;;;;;;;;;;;22.30;99.90;;;;;;8377775;28;19921;-71
2022/06/18 01:12:44;;;;;;;;;;;22.30;99.90;;;;;;8388326;28;19921;-71
2022/06/18 01:16:46;;;;;;;;;;;22.20;99.90;;;;;;8396884;28;20389;-71
2022/06/18 01:20:50;;;;;;;;;;;22.20;99.90;;;;;;8390587;28;19936;-71
2022/06/18 01:24:51;;;;;;;;;;;22.20;99.90;;;;;;8403064;28;20375;-71
2022/06/18 01:28:53;;;;;;;;;;;22.10;99.90;;;;;;8385017;28;19931;-71
2022/06/18 01:32:55;;;;;;;;;;;22.10;99.90;;;;;;8386357;28;20307;-71
2022/06/18 01:36:58;;;;;;;;;;;22.00;99.90;;;;;;8392978;28;19924;-71
2022/06/18 01:45:29;;;;;;;;;;;21.80;99.90;;;;;;8382467;28;19921;-71
2022/06/18 01:49:34;;;;;;;;;;;21.80;99.90;;;;;;8389428;28;20279;-71
2022/06/18 01:53:39;;;;;;;;;;;21.70;99.90;;;;;;8381510;28;25127;-71
2022/06/18 01:57:45;;;;;;;;;;;21.70;99.90;;;;;;8396289;28;19924;-71
2022/06/18 02:01:48;;;;;;;;;;;21.60;99.90;;;;;;8379956;28;19920;-71
2022/06/18 02:05:50;;;;;;;;;;;21.60;99.90;;;;;;8387962;28;19920;-71
2022/06/18 02:09:54;;;;;;;;;;;21.50;99.90;;;;;;8382497;28;19924;-71
2022/06/18 02:14:02;;;;;;;;;;;21.50;99.90;;;;;;8389228;28;19928;-71
2022/06/18 02:18:06;;;;;;;;;;;21.50;99.90;;;;;;8381375;28;19943;-71
2022/06/18 02:22:08;;;;;;;;;;;21.40;99.90;;;;;;8382218;28;19947;-71
2022/06/18 02:26:10;;;;;;;;;;;21.40;99.90;;;;;;8390525;28;19924;-71
2022/06/18 02:30:20;;;;;;;;;;;21.30;99.90;;;;;;8387402;28;19920;-71
2022/06/18 02:34:27;;;;;;;;;;;21.30;99.90;;;;;;8386720;28;20323;-71
2022/06/18 02:38:29;;;;;;;;;;;21.20;99.90;;;;;;8383914;28;19927;-71
2022/06/18 02:42:32;;;;;;;;;;;21.20;99.90;;;;;;8401998;28;19928;-71
2022/06/18 02:46:34;;;;;;;;;;;21.20;99.90;;;;;;8392478;28;19926;-70
2022/06/18 02:50:38;;;;;;;;;;;21.10;99.90;;;;;;8387363;28;19930;-71
2022/06/18 02:54:40;;;;;;;;;;;21.10;99.90;;;;;;8389977;28;19924;-71
2022/06/18 02:58:43;;;;;;;;;;;21.10;99.90;;;;;;8384884;28;19928;-71
2022/06/18 03:02:45;;;;;;;;;;;21.10;99.90;;;;;;8386397;28;19924;-71
2022/06/18 03:06:46;;;;;;;;;;;21.10;99.90;;;;;;8385285;28;19947;-71
2022/06/18 03:15:08;;;;;;;;;;;21.00;99.90;;;;;;8395349;28;19920;-71
2022/06/18 03:19:16;;;;;;;;;;;21.00;99.90;;;;;;8385725;28;19924;-71
2022/06/18 03:23:18;;;;;;;;;;;20.90;99.90;;;;;;8383566;28;20291;-71
2022/06/18 03:27:19;;;;;;;;;;;20.90;99.90;;;;;;8382743;28;20300;-71
2022/06/18 03:31:22;;;;;;;;;;;20.90;99.90;;;;;;8386614;28;19972;-72
2022/06/18 03:35:24;;;;;;;;;;;20.80;99.90;;;;;;8388350;28;19928;-71
2022/06/18 03:39:26;;;;;;;;;;;20.80;99.90;;;;;;8396399;28;19932;-71
2022/06/18 03:43:27;;;;;;;;;;;20.80;99.90;;;;;;8398617;28;20300;-71
2022/06/18 03:47:29;;;;;;;;;;;20.80;99.90;;;;;;8384691;28;19955;-71
2022/06/18 03:51:31;;;;;;;;;;;20.80;99.90;;;;;;8396038;28;19924;-71
2022/06/18 03:55:33;;;;;;;;;;;20.70;99.90;;;;;;8380143;28;19924;-71
2022/06/18 03:59:35;;;;;;;;;;;20.70;99.90;;;;;;8379568;28;19957;-71
2022/06/18 04:03:37;;;;;;;;;;;20.70;99.90;;;;;;8379457;28;19937;-71
2022/06/18 04:07:39;;;;;;;;;;;20.70;99.90;;;;;;8376875;28;19936;-71
2022/06/18 04:11:41;;;;;;;;;;;20.70;99.90;;;;;;8380069;28;19974;-71
2022/06/18 04:15:43;;;;;;;;;;;20.70;99.90;;;;;;8384201;28;19928;-71
2022/06/18 04:19:44;;;;;;;;;;;20.70;99.90;;;;;;8384434;28;19925;-71
2022/06/18 04:23:46;;;;;;;;;;;20.70;99.90;;;;;;8384105;28;19925;-71
2022/06/18 04:27:48;;;;;;;;;;;20.70;99.90;;;;;;8383003;28;20367;-71
2022/06/18 04:31:50;;;;;;;;;;;20.70;99.90;;;;;;8383758;28;19920;-71
2022/06/18 04:35:53;;;;;;;;;;;20.70;99.90;;;;;;8384407;28;19928;-71
2022/06/18 04:39:54;;;;;;;;;;;20.70;99.90;;;;;;8371282;28;19921;-71
2022/06/18 04:43:57;;;;;;;;;;;20.70;99.90;;;;;;8376929;28;19936;-71
2022/06/18 04:47:59;;;;;;;;;;;20.70;99.90;;;;;;8374861;28;19921;-71
2022/06/18 04:52:01;;;;;;;;;;;20.80;99.90;;;;;;8386345;28;19928;-71
2022/06/18 04:56:03;;;;;;;;;;;20.80;99.90;;;;;;8369980;28;20299;-71
2022/06/18 05:00:07;;;;;;;;;;;20.90;99.90;;;;;;8377767;28;19932;-71
2022/06/18 05:04:08;;;;;;;;;;;21.00;99.90;;;;;;8378404;28;19931;-71
2022/06/18 05:08:10;;;;;;;;;;;21.10;99.90;;;;;;8379702;28;19920;-71
2022/06/18 05:12:12;;;;;;;;;;;21.10;99.90;;;;;;8381424;28;19921;-71
2022/06/18 05:16:16;;;;;;;;;;;21.10;99.90;;;;;;8379068;28;19938;-71
2022/06/18 05:20:20;;;;;;;;;;;21.10;99.90;;;;;;8378197;28;20372;-71
2022/06/18 05:24:22;;;;;;;;;;;21.20;99.90;;;;;;8411819;28;19931;-71
2022/06/18 05:28:24;;;;;;;;;;;21.30;99.90;;;;;;8387172;28;19954;-71
2022/06/18 05:32:26;;;;;;;;;;;21.40;99.90;;;;;;8379052;28;19920;-70
2022/06/18 05:36:28;;;;;;;;;;;21.40;99.90;;;;;;8388802;28;20121;-71
2022/06/18 05:40:29;;;;;;;;;;;21.50;99.90;;;;;;8391003;28;20545;-71
2022/06/18 05:44:31;;;;;;;;;;;21.60;99.90;;;;;;8377735;28;19927;-72
2022/06/18 05:48:33;;;;;;;;;;;21.60;99.90;;;;;;8382690;28;19920;-71
2022/06/18 05:52:34;;;;;;;;;;;21.70;99.90;;;;;;8378729;28;19932;-71
2022/06/18 05:56:36;;;;;;;;;;;21.70;99.90;;;;;;8382652;28;19961;-71
2022/06/18 06:00:37;;;;;;;;;;;21.80;99.90;;;;;;8395816;28;20386;-71
2022/06/18 06:04:39;;;;;;;;;;;21.80;99.90;;;;;;8390678;28;19920;-71
2022/06/18 06:08:41;;;;;;;;;;;21.80;99.90;;;;;;8378929;28;20028;-71
2022/06/18 06:12:43;;;;;;;;;;;21.90;99.90;;;;;;8385809;28;19962;-71
2022/06/18 06:16:45;;;;;;;;;;;22.00;99.90;;;;;;8385352;28;20029;-71
2022/06/18 06:20:49;;;;;;;;;;;22.00;99.90;;;;;;8386449;28;19935;-71
2022/06/18 06:24:50;;;;;;;;;;;22.00;99.90;;;;;;8388738;28;19927;-71
2022/06/18 06:28:52;;;;;;;;;;;22.10;99.90;;;;;;8386698;28;19939;-71
2022/06/18 06:32:54;;;;;;;;;;;22.10;99.90;;;;;;8391126;28;19931;-71
2022/06/18 06:36:56;;;;;;;;;;;22.10;99.90;;;;;;8382756;28;19920;-71
2022/06/18 06:40:58;;;;;;;;;;;22.20;99.90;;;;;;8388028;28;19932;-71
2022/06/18 06:45:00;;;;;;;;;;;22.20;99.90;;;;;;8385805;28;24118;-71
2022/06/18 06:49:02;;;;;;;;;;;22.30;99.90;;;;;;8354751;28;20340;-71
2022/06/18 06:53:04;;;;;;;;;;;22.30;99.90;;;;;;8357667;28;19921;-71
2022/06/18 06:57:21;;;;;;;;;;;22.40;99.90;;;;;;8351660;28;20199;-71
2022/06/18 07:01:23;;;;;;;5.75;3.20;;;22.40;99.90;;;;;;8362646;28;19920;-71
2022/06/18 07:05:24;;;;;;;6.78;3.53;;;22.50;99.90;;;;;;8351551;28;20067;-71
2022/06/18 07:09:26;;;;;;;7.00;3.78;;;22.50;99.90;;;;;;8351661;28;20484;-71
2022/06/18 07:13:29;;;;;;;7.78;4.00;;;22.60;99.90;;;;;;8361944;28;20510;-71
2022/06/18 07:17:31;;;;;;;6.63;3.70;;;22.70;99.90;;;;;;8351335;28;20045;-71
2022/06/18 07:21:34;;;;;;;7.38;4.20;;;22.70;99.90;;;;;;8368295;28;20045;-71
2022/06/18 07:25:36;;;;;;;7.20;3.72;;;22.70;99.90;;;;;;8355213;28;20148;-71
2022/06/18 07:29:38;;;;;;;7.72;3.60;;;22.80;99.90;;;;;;8347231;28;20060;-71
2022/06/18 07:33:40;;;;;;;6.40;3.22;;;22.80;99.90;;;;;;8333603;28;20425;-71
2022/06/18 07:37:41;;;;;;;7.05;3.45;;;22.90;99.90;;;;;;8362828;28;20049;-71
2022/06/18 07:41:48;;;;;;;8.25;4.10;;;22.90;99.90;;;;;;8349719;28;20048;-71
2022/06/18 07:45:50;;;;;;;7.55;3.70;;;23.00;99.90;;;;;;8369048;28;20416;-71
2022/06/18 07:49:51;;;;;;;8.07;3.78;;;23.10;99.90;;;;;;8389517;28;20492;-71
2022/06/18 07:53:54;;;;;;;6.85;3.65;;;23.20;99.90;;;;;;8386133;28;20059;-71
2022/06/18 07:57:56;;;;;;;6.30;3.63;;;23.20;99.90;;;;;;8388593;28;20119;-71
2022/06/18 08:01:58;;;;;;;6.78;3.75;;;23.30;99.90;;;;;;8383794;28;20060;-71
2022/06/18 08:06:01;;;;;;;7.88;3.53;;;23.30;99.90;;;;;;8382147;28;20462;-71
2022/06/18 08:10:05;;;;;;;7.82;3.13;;;23.40;99.90;;;;;;8369106;28;20060;-71
2022/06/18 08:14:07;;;;;;;7.55;3.33;;;23.50;99.90;;;;;;8350780;28;20101;-71
2022/06/18 08:18:09;;;;;;;9.50;3.80;;;23.50;99.90;;;;;;8365953;28;20076;-71
2022/06/18 08:22:30;;;;;;;;;;;23.60;99.90;;;;;;8354425;28;20067;-71
2022/06/18 08:26:32;;;;;;;;;;;23.70;99.90;;;;;;8348239;28;19924;-71
2022/06/18 08:30:34;;;;;;;;;;;23.80;99.90;;;;;;8349838;28;20228;-71
2022/06/18 08:34:36;;;;;;;;;;;23.80;99.90;;;;;;8349975;28;19969;-72
2022/06/18 08:38:38;;;;;;;;;;;23.90;99.90;;;;;;8347837;28;19931;-71
2022/06/18 08:42:50;;;;;;;;;;;23.90;99.90;;;;;;8352830;28;24069;-71
2022/06/18 08:47:05;;;;;;;;;;;24.00;99.90;;;;;;8356652;28;19932;-72
2022/06/18 08:51:22;;;;;;;;;;;24.10;99.90;;;;;;8362033;28;19957;-71
2022/06/18 08:55:23;;;;;;;;;;;24.20;99.90;;;;;;8358793;28;24078;-71
2022/06/18 08:59:31;;;;;;;;;;;24.20;99.90;;;;;;8364537;28;19933;-72
2022/06/18 09:03:47;;;;;;;;;;;24.30;99.90;;;;;;8350734;28;19925;-71
2022/06/18 09:08:01;;;;;;;;;;;24.40;99.90;;;;;;8351146;28;19964;-71
2022/06/18 09:12:18;;;;;;;;;;;24.50;99.90;;;;;;8350179;28;19932;-71
2022/06/18 09:16:22;;;;;;;;;;;24.70;99.90;;;;;;8348489;28;20908;-71
2022/06/18 09:20:28;;;;;;;;;;;24.80;99.90;;;;;;8356219;28;24336;-71
2022/06/18 09:24:35;;;;;;;;;;;25.00;99.90;;;;;;8389307;28;20607;-71
2022/06/18 09:28:39;;;;;;;;;;;25.20;99.90;;;;;;8388963;28;20384;-71
2022/06/18 09:32:41;;;;;;;;;;;25.20;99.90;;;;;;8356340;28;20372;-71
2022/06/18 09:36:44;;;;;;;;;;;25.30;99.90;;;;;;8365907;28;19928;-71
2022/06/18 09:41:01;;;;;;;;;;;25.40;99.90;;;;;;8366129;28;19925;-72
2022/06/18 09:45:03;;;;;;;;;;;25.60;99.90;;;;;;8356858;28;19931;-71
2022/06/18 09:49:04;;;;;;;;;;;25.60;99.90;;;;;;8363899;28;20273;-72
2022/06/18 09:53:11;;;;;;;;;;;25.60;99.90;;;;;;8360536;28;19924;-71
2022/06/18 09:57:14;;;;;;;;;;;25.70;99.90;;;;;;8355208;28;19925;-71
2022/06/18 10:01:17;;;;;;;;;;;25.80;99.90;;;;;;8354583;28;19964;-71
2022/06/18 10:09:52;;;;;;;;;;;25.90;99.90;;;;;;8359953;28;19928;-71
2022/06/18 10:14:06;;;;;;;;;;;26.00;99.90;;;;;;8367209;28;19944;-71
2022/06/18 10:18:14;;;;;;;;;;;26.10;99.90;;;;;;8355042;28;20007;-71
2022/06/18 10:22:34;;;;;;;;;;;26.20;99.90;;;;;;8384930;28;19927;-71
2022/06/18 10:26:45;;;;;;;;;;;26.30;99.90;;;;;;8344920;28;20372;-71
2022/06/18 10:31:00;;;;;;;;;;;26.30;99.90;;;;;;8356150;28;19920;-71
2022/06/18 10:35:07;;;;;;;;;;;26.30;99.90;;;;;;8353924;28;20326;-71
2022/06/18 10:39:21;;;;;;;;;;;26.30;99.90;;;;;;8357743;28;20003;-71
2022/06/18 10:43:32;;;;;;;;;;;26.30;99.90;;;;;;8359060;28;19932;-71
2022/06/18 10:47:35;;;;;;;;;;;26.40;99.90;;;;;;8362217;28;19929;-71
2022/06/18 10:51:42;;;;;;;;;;;26.40;99.90;;;;;;8350765;28;20273;-71
2022/06/18 10:55:44;;;;;;;;;;;26.50;99.90;;;;;;8352455;28;20430;-71
2022/06/18 10:59:45;;;;;;;;;;;26.60;99.90;;;;;;8383817;28;20397;-71
2022/06/18 11:03:58;;;;;;;;;;;26.60;99.90;;;;;;8354455;28;20607;-71
2022/06/18 11:08:01;;;;;;;;;;;26.70;99.90;;;;;;8351686;28;19921;-71
2022/06/18 11:12:05;;;;;;;;;;;26.80;99.90;;;;;;8353030;28;19958;-71
2022/06/18 11:16:12;;;;;;;;;;;26.90;99.90;;;;;;8352640;28;20811;-71
2022/06/18 11:20:25;;;;;;;;;;;26.90;99.90;;;;;;8354685;28;20435;-70
2022/06/18 11:24:27;;;;;;;;;;;26.90;99.90;;;;;;8349469;28;19936;-71
2022/06/18 11:28:41;;;;;;;;;;;27.00;99.90;;;;;;8355251;28;19929;-71
2022/06/18 11:32:46;;;;;;;;;;;27.00;99.90;;;;;;8387132;27;20356;-71
2022/06/18 11:36:49;;;;;;;;;;;27.10;99.90;;;;;;8355195;28;20582;-71
2022/06/18 11:40:53;;;;;;;;;;;27.20;99.90;;;;;;8355330;28;20387;-71
2022/06/18 11:45:15;;;;;;;;;;;27.20;99.90;;;;;;8351593;28;20296;-71
2022/06/18 11:49:23;;;;;;;;;;;27.30;99.90;;;;;;8363370;28;20383;-71
2022/06/18 11:53:31;;;;;;;;;;;27.40;99.90;;;;;;8384846;28;20376;-71
2022/06/18 11:57:41;;;;;;;;;;;27.40;99.90;;;;;;8384726;28;19927;-71
2022/06/18 12:01:46;;;;;;;;;;;27.50;99.90;;;;;;8352185;28;19935;-71
2022/06/18 12:05:50;;;;;;;;;;;27.50;99.90;;;;;;8350225;28;20443;-71
2022/06/18 12:09:51;;;;;;;;;;;27.50;99.90;;;;;;8354047;28;25075;-71
2022/06/18 12:14:03;;;;;;;;;;;27.50;99.90;;;;;;8352778;28;20283;-71
2022/06/18 12:18:04;;;;;;;;;;;27.50;99.90;;;;;;8353218;28;20334;-71
2022/06/18 12:22:09;;;;;;;;;;;27.50;99.90;;;;;;8371157;28;19934;-71
2022/06/18 12:26:14;;;;;;;;;;;27.50;99.90;;;;;;8379820;28;19931;-71
2022/06/18 12:30:18;;;;;;;;;;;27.50;99.90;;;;;;8353543;28;19924;-71
2022/06/18 12:34:25;;;;;;;;;;;27.50;99.90;;;;;;8384164;28;20427;-71
2022/06/18 12:38:28;;;;;;;;;;;27.60;99.90;;;;;;8362711;28;19928;-72
2022/06/18 12:43:00;;;;;;;;;;;27.70;99.90;;;;;;8370602;28;19924;-71
2022/06/18 12:47:02;;;;;;;;;;;27.70;99.90;;;;;;8346795;28;19927;-71
2022/06/18 12:51:07;;;;;;;;;;;27.80;99.90;;;;;;8370079;28;19967;-71
2022/06/18 12:55:29;;;;;;;;;;;27.90;99.90;;;;;;8351282;28;19939;-71
2022/06/18 12:59:43;;;;;;;;;;;28.00;99.90;;;;;;8367283;28;20364;-72
2022/06/18 13:04:00;;;;;;;;;;;28.00;99.90;;;;;;8367827;28;19959;-71
2022/06/18 13:08:02;;;;;;;;;;;28.10;99.90;;;;;;8355458;28;19947;-71
2022/06/18 13:12:07;;;;;;;;;;;28.10;99.90;;;;;;8370436;28;19940;-71
2022/06/18 13:16:13;;;;;;;;;;;28.10;99.90;;;;;;8352144;28;20702;-71
2022/06/18 13:20:15;;;;;;;;;;;28.10;99.90;;;;;;8396150;27;25128;-71
2022/06/18 13:28:45;;;;;;;;;;;28.10;99.90;;;;;;8358578;28;19925;-71
2022/06/18 13:32:52;;;;;;;;;;;28.10;99.90;;;;;;8355575;28;20008;-71
2022/06/18 13:36:53;;;;;;;;;;;28.00;99.90;;;;;;8357016;28;19944;-71
2022/06/18 13:41:00;;;;;;;;;;;28.00;99.90;;;;;;8359289;28;19941;-71
2022/06/18 13:45:10;;;;;;;;;;;27.90;99.90;;;;;;8354264;28;19982;-72
2022/06/18 13:49:27;;;;;;;;;;;27.90;99.90;;;;;;8355801;28;19936;-72
2022/06/18 13:53:33;;;;;;;;;;;27.90;99.90;;;;;;8355841;28;19940;-71
2022/06/18 13:57:40;;;;;;;;;;;27.90;99.90;;;;;;8356476;28;19928;-71
2022/06/18 14:01:50;;;;;;;;;;;27.90;99.90;;;;;;8369193;28;19927;-71
2022/06/18 14:06:01;;;;;;;;;;;27.80;99.90;;;;;;8351516;28;20066;-72
2022/06/18 14:10:11;;;;;;;;;;;27.80;99.90;;;;;;8354221;28;25134;-71
2022/06/18 14:14:24;;;;;;;;;;;27.70;99.90;;;;;;8358172;28;19935;-71
2022/06/18 14:18:26;;;;;;;;;;;27.70;99.90;;;;;;8386788;28;19937;-71
2022/06/18 14:22:29;;;;;;;;;;;27.80;99.90;;;;;;8354701;28;20288;-71
2022/06/18 14:26:41;;;;;;;;;;;27.70;99.90;;;;;;8356830;28;24088;-71
2022/06/18 14:30:45;;;;;;;;;;;27.80;99.90;;;;;;8356858;28;24080;-71
2022/06/18 14:35:06;;;;;;;;;;;27.80;99.90;;;;;;8353972;28;25077;-72
2022/06/18 14:39:28;;;;;;;;;;;27.80;99.90;;;;;;8387038;27;25137;-71
2022/06/18 14:43:39;;;;;;;;;;;27.80;99.90;;;;;;8354511;28;19936;-71
2022/06/18 14:48:06;;;;;;;;;;;27.80;99.90;;;;;;8358604;28;20239;-71
2022/06/18 14:52:28;;;;;;;;;;;27.80;99.90;;;;;;8353842;28;19921;-71
2022/06/18 14:56:32;;;;;;;;;;;27.90;99.90;;;;;;8354239;28;19929;-71
2022/06/18 15:00:53;;;;;;;;;;;27.90;99.90;;;;;;8369664;28;19920;-71
2022/06/18 15:04:57;;;;;;;;;;;27.90;99.90;;;;;;8350359;28;24171;-71
2022/06/18 15:08:59;;;;;;;;;;;27.90;99.90;;;;;;8354225;28;19978;-72
2022/06/18 15:13:00;;;;;;;;;;;27.80;99.90;;;;;;8352107;28;20261;-71
2022/06/18 15:25:52;;;;;;;;;;;27.80;99.90;;;;;;8340782;28;19948;-71
2022/06/18 15:30:00;;;;;;;;;;;27.90;99.90;;;;;;8345622;28;19932;-71
2022/06/18 15:34:22;;;;;;;;;;;27.90;99.90;;;;;;8369891;28;20073;-72
2022/06/18 15:38:24;;;;;;;;;;;27.90;99.90;;;;;;8355782;28;19927;-72
2022/06/18 15:42:37;;;;;;;;;;;27.90;99.90;;;;;;8353403;28;21005;-72
2022/06/18 15:46:38;;;;;;;;;;;28.00;99.90;;;;;;8351476;28;19924;-72
2022/06/18 15:50:41;;;;;;;;;;;28.10;99.90;;;;;;8351653;28;20332;-72
2022/06/18 15:54:46;;;;;;;;;;;28.10;99.90;;;;;;8357146;28;20463;-71
2022/06/18 15:58:49;;;;;;;;;;;28.20;99.90;;;;;;8353424;28;19920;-72
2022/06/18 16:02:52;;;;;;;;;;;28.30;99.90;;;;;;8382851;28;19979;-71
2022/06/18 16:06:54;;;;;;;;;;;28.40;99.90;;;;;;8351255;28;19921;-72
2022/06/18 16:11:17;;;;;;;;;;;28.60;99.90;;;;;;8349896;28;19929;-71
2022/06/18 16:15:31;;;;;;;;;;;28.70;99.90;;;;;;8353932;28;19936;-71
2022/06/18 16:19:39;;;;;;;;;;;28.80;99.90;;;;;;8352220;28;20262;-71
2022/06/18 16:23:51;;;;;;;;;;;28.70;99.90;;;;;;8347364;28;20364;-72
2022/06/18 16:28:00;;;;;;;;;;;28.40;99.90;;;;;;8380286;28;20547;-71
2022/06/18 16:32:02;;;;;;;;;;;28.20;99.90;;;;;;8350609;28;19921;-71
2022/06/18 16:36:25;;;;;;;;;;;28.20;99.90;;;;;;8350945;28;19952;-71
2022/06/18 16:40:27;;;;;;;;;;;28.20;99.90;;;;;;8351766;28;19925;-71
2022/06/18 16:44:30;;;;;;;;;;;28.30;99.90;;;;;;8351521;28;20292;-72
2022/06/18 16:48:36;;;;;;;;;;;28.50;99.90;;;;;;8381890;28;20015;-71
2022/06/18 16:52:38;;;;;;;;;;;28.70;99.90;;;;;;8344634;28;19931;-71
2022/06/18 16:56:40;;;;;;;;;;;28.90;99.90;;;;;;8351840;28;19932;-71
2022/06/18 17:00:44;;;;;;;;;;;29.10;99.90;;;;;;8351162;28;19921;-71
2022/06/18 17:04:46;;;;;;;;;;;29.10;99.90;;;;;;8356290;28;24090;-71
2022/06/18 17:08:48;;;;;;;;;;;29.20;99.90;;;;;;8358740;28;19925;-71
2022/06/18 17:12:50;;;;;;;;;;;29.20;99.90;;;;;;8352328;28;19927;-71
2022/06/18 17:16:52;;;;;;;;;;;29.10;99.90;;;;;;8359251;28;20018;-71
2022/06/18 17:20:54;;;;;;;;;;;29.00;99.90;;;;;;8347950;28;24073;-71
2022/06/18 17:33:43;;;;;;;;;;;28.30;99.90;;;;;;8341753;28;19928;-71
2022/06/18 17:37:45;;;;;;;;;;;28.00;99.90;;;;;;8341050;28;19928;-71
2022/06/18 17:41:46;;;;;;;;;;;27.70;99.90;;;;;;8337722;28;19924;-71
2022/06/18 17:45:48;;;;;;;;;;;27.40;99.90;;;;;;8347067;28;20019;-71
2022/06/18 17:49:50;;;;;;;;;;;27.10;99.90;;;;;;8300127;28;19928;-71
2022/06/18 17:53:51;;;;;;;;;;;26.90;99.90;;;;;;8308916;28;19928;-71
2022/06/18 17:57:53;;;;;;;;;;;26.80;99.90;;;;;;8326109;28;20318;-71
2022/06/18 18:01:56;;;;;;;;;;;26.60;99.90;;;;;;8306416;28;24131;-71
2022/06/18 18:05:58;;;;;;;;;;;26.50;99.90;;;;;;8310936;28;19928;-71
2022/06/18 18:09:59;;;;;;;;;;;26.30;99.90;;;;;;8340238;28;19929;-71
2022/06/18 18:14:01;;;;;;;;;;;26.20;99.90;;;;;;8321454;28;20296;-71
2022/06/18 18:18:03;;;;;;;;;;;26.00;99.90;;;;;;8327985;28;19921;-71
2022/06/18 18:22:04;;;;;;;;;;;25.90;99.90;;;;;;8320246;28;20287;-71
2022/06/18 18:26:06;;;;;;;;;;;25.70;99.90;;;;;;8328949;28;20153;-71
2022/06/18 18:30:09;;;;;;;;;;;25.60;99.90;;;;;;8316512;28;19936;-71
2022/06/18 18:34:11;;;;;;;;;;;25.50;99.90;;;;;;8313096;28;20309;-71
2022/06/18 18:38:12;;;;;;;;;;;25.40;99.90;;;;;;8324999;28;19920;-71
2022/06/18 18:42:18;;;;;;;;;;;25.30;99.90;;;;;;8318753;28;20375;-71
2022/06/18 18:46:20;;;;;;;;;;;25.30;99.90;;;;;;8335599;28;20381;-71
2022/06/18 18:50:21;;;;;;;;;;;25.20;99.90;;;;;;8358466;28;19925;-71
2022/06/18 18:54:23;;;;;;;;;;;25.20;99.90;;;;;;8350006;28;19920;-71
2022/06/18 18:58:25;;;;;;;;;;;25.10;99.90;;;;;;8350767;28;19932;-71
2022/06/18 19:02:27;;;;;;;;;;;25.00;99.90;;;;;;8348578;28;19931;-71
2022/06/18 19:06:29;;;;;;;;;;;24.90;99.90;;;;;;8350646;28;20325;-71
2022/06/18 19:10:30;;;;;;;;;;;24.90;99.90;;;;;;8354117;28;19948;-71
2022/06/18 19:14:32;;;;;;;;;;;24.80;99.90;;;;;;8352676;28;19924;-71
2022/06/18 19:18:38;;;;;;;;;;;24.60;99.90;;;;;;8386243;28;19936;-71
2022/06/18 19:22:39;;;;;;;;;;;24.50;99.90;;;;;;8367633;28;20031;-71
2022/06/18 19:26:42;;;;;;;;;;;24.50;99.90;;;;;;8351611;28;19921;-71
2022/06/18 19:30:43;;;;;;;;;;;24.40;99.90;;;;;;8348617;28;20321;-71
2022/06/18 19:34:46;;;;;;;;;;;24.20;99.90;;;;;;8352263;28;20016;-71
2022/06/18 19:38:47;;;;;;;;;;;24.20;99.90;;;;;;8350139;28;19929;-71
2022/06/18 19:42:49;;;;;;;;;;;24.10;99.90;;;;;;8347706;28;19920;-71
2022/06/18 19:46:54;;;;;;;;;;;24.00;99.90;;;;;;8346914;28;19996;-71
2022/06/18 19:50:56;;;;;;;3.83;0.93;;;23.90;99.90;;;;;;8349516;28;19936;-71
2022/06/18 19:54:58;;;;;;;3.67;1.00;;;23.80;99.90;;;;;;8359478;28;20465;-71
2022/06/18 19:59:00;;;;;;;;;;;23.70;99.90;;;;;;8351990;28;20079;-71
2022/06/18 20:03:02;;;;;;;;;;;23.70;99.90;;;;;;8347618;28;19929;-71
2022/06/18 20:07:04;;;;;;;;;;;23.60;99.90;;;;;;8382650;28;19920;-71
2022/06/18 20:11:06;;;;;;;;;;;23.60;99.90;;;;;;8348675;28;19921;-71
2022/06/18 20:15:09;;;;;;;;;;;23.50;99.90;;;;;;8349623;28;19921;-71
2022/06/18 20:19:11;;;;;;;;;;;23.50;99.90;;;;;;8347540;28;19929;-71
2022/06/18 20:23:13;;;;;;;;;;;23.40;99.90;;;;;;8349578;28;19933;-71
2022/06/18 20:27:15;;;;;;;;;;;23.40;99.90;;;;;;8344099;28;19920;-71
2022/06/18 20:31:17;;;;;;;;;;;23.30;99.90;;;;;;8348106;28;20295;-71
2022/06/18 20:35:23;;;;;;;;;;;23.20;99.90;;;;;;8352496;28;19943;-71
2022/06/18 20:39:25;;;;;;;;;;;23.10;99.90;;;;;;8346852;28;20027;-71
2022/06/18 20:43:33;;;;;;;;;;;23.00;99.90;;;;;;8347617;28;19925;-71
2022/06/18 20:47:34;;;;;;;;;;;23.00;99.90;;;;;;8348203;28;19928;-71
2022/06/18 20:51:38;;;;;;;;;;;22.80;99.90;;;;;;8349314;28;19943;-71
2022/06/18 21:00:00;;;;;;;;;;;22.50;99.90;;;;;;8350882;28;19956;-71
2022/06/18 21:04:01;;;;;;;;;;;22.30;99.90;;;;;;8381790;28;19924;-71
2022/06/18 21:08:04;;;;;;;;;;;22.20;99.90;;;;;;8374616;28;19928;-71
2022/06/18 21:12:06;;;;;;;;;;;22.10;99.90;;;;;;8373376;28;19932;-71
2022/06/18 21:16:08;;;;;;;;;;;22.00;99.90;;;;;;8388639;28;19954;-71
2022/06/18 21:20:10;;;;;;;;;;;21.90;99.90;;;;;;8389426;28;19932;-71
2022/06/18 21:24:12;;;;;;;;;;;21.80;99.90;;;;;;8390158;28;19936;-71
2022/06/18 21:28:15;;;;;;;;;;;21.70;99.90;;;;;;8384013;28;20321;-71
2022/06/18 21:37:00;;;;;;;;;;;21.40;99.90;;;;;;8385202;28;19933;-71
2022/06/18 21:41:04;;;;;;;;;;;21.30;99.90;;;;;;8389301;28;19925;-71
2022/06/18 21:45:06;;;;;;;;;;;21.20;99.90;;;;;;8385775;28;20293;-71
2022/06/18 21:49:08;;;;;;;;;;;21.10;99.90;;;;;;8386497;28;19920;-71
2022/06/18 21:53:10;;;;;;;;;;;21.10;99.90;;;;;;8391411;28;19920;-71
2022/06/18 21:57:22;;;;;;;;;;;21.10;99.90;;;;;;8383068;28;19924;-71
2022/06/18 22:01:26;;;;;;;;;;;21.00;99.90;;;;;;8385658;28;20201;-71
2022/06/18 22:05:28;;;;;;;;;;;20.90;99.90;;;;;;8394987;28;19942;-71
2022/06/18 22:09:30;;;;;;;;;;;20.80;99.90;;;;;;8387618;28;19948;-71
2022/06/18 22:17:53;;;;;;;;;;;20.60;99.90;;;;;;8387231;28;19978;-71
2022/06/18 22:21:55;;;;;;;;;;;20.60;99.90;;;;;;8387927;28;19929;-71
2022/06/18 22:25:57;;;;;;;;;;;20.50;99.90;;;;;;8384972;28;19929;-71
2022/06/18 22:29:58;;;;;;;;;;;20.30;99.90;;;;;;8399718;28;19927;-71
2022/06/18 22:34:02;;;;;;;;;;;20.30;99.90;;;;;;8380132;28;20269;-71
2022/06/18 22:38:06;;;;;;;;;;;20.20;99.90;;;;;;8383251;28;19924;-71
2022/06/18 22:42:08;;;;;;;;;;;20.10;99.90;;;;;;8392196;28;19927;-71
2022/06/18 22:46:09;;;;;;;;;;;20.00;99.90;;;;;;8368114;28;19920;-71
2022/06/18 22:50:13;;;;;;;;;;;19.90;99.90;;;;;;8357866;28;20558;-71
2022/06/18 22:54:16;;;;;;;;;;;19.80;99.90;;;;;;8347092;28;20387;-71
2022/06/18 22:58:18;;;;;;;;;;;19.80;99.90;;;;;;8353024;28;19928;-71
2022/06/18 23:02:20;;;;;;;;;;;19.70;99.90;;;;;;8342158;28;19928;-71
2022/06/18 23:06:22;;;;;;;;;;;19.60;99.90;;;;;;8345086;28;19928;-70
2022/06/18 23:10:23;;;;;;;;;;;19.60;99.90;;;;;;8351178;28;19921;-70
2022/06/18 23:14:29;;;;;;;;;;;19.50;99.90;;;;;;8357499;28;19920;-71
2022/06/18 23:18:31;;;;;;;;;;;19.40;99.90;;;;;;8357063;28;19920;-70
2022/06/18 23:22:33;;;;;;;;;;;19.30;99.90;;;;;;8358178;28;19948;-71
2022/06/18 23:26:35;;;;;;;;;;;19.10;99.90;;;;;;8354440;28;19921;-70
2022/06/18 23:30:36;;;;;;;;;;;19.10;99.90;;;;;;8351068;28;20431;-70
2022/06/18 23:34:39;;;;;;;;;;;19.00;99.90;;;;;;8341134;28;19921;-70
2022/06/18 23:38:41;;;;;;;;;;;19.00;99.90;;;;;;8355767;28;20615;-70
2022/06/18 23:42:43;;;;;;;;;;;18.90;99.90;;;;;;8332871;28;19928;-70
2022/06/18 23:46:46;;;;;;;;;;;18.90;99.90;;;;;;8368516;28;19920;-71
2022/06/18 23:50:47;;;;;;;;;;;18.90;99.90;;;;;;8381465;28;19927;-70
2022/06/18 23:54:58;;;;;;;;;;;18.80;99.90;;;;;;8385554;28;19943;-70
2022/06/18 23:59:00;;;;;;;;;;;18.70;99.90;;;;;;8416636;27;20360;-70
